Time;durP1;ratioP1;P1;durP2;ratioP2;P2;SDS_P1;SDS_P2;PMS_P1;PMS_P2;Temp;Humidity;BMP_temperature;BMP_pressure;BME280_temperature;BME280_humidity;BME280_pressure;Samples;Min_cycle;Max_cycle;Signal;HPM_P1;HPM_P2
2022/07/07 00:01:29;;;;;;;1.80;1.40;;;;;;;16.01;92.12;97391.34;109975;1250;68507;-75
2022/07/07 00:04:01;;;;;;;2.20;1.50;;;;;;;16.05;91.48;97392.04;110251;1248;60552;-75
2022/07/07 00:06:32;;;;;;;2.80;1.40;;;;;;;16.06;91.08;97393.54;110099;1250;60494;-75
2022/07/07 00:09:04;;;;;;;1.60;1.20;;;;;;;16.06;90.92;97394.73;110294;1247;72200;-74
2022/07/07 00:11:35;;;;;;;2.80;1.40;;;;;;;16.07;90.64;97396.30;110023;1247;68349;-75
2022/07/07 00:14:07;;;;;;;1.50;1.30;;;;;;;16.06;90.61;97391.82;109932;1248;68655;-75
2022/07/07 00:16:37;;;;;;;3.40;1.80;;;;;;;15.99;90.94;97391.05;110324;1247;60603;-73
2022/07/07 00:19:09;;;;;;;2.50;1.70;;;;;;;15.99;90.71;97385.61;110328;1247;60541;-75
2022/07/07 00:21:38;;;;;;;;;;;;;;;15.96;91.08;97388.58;110007;1247;72331;-76
2022/07/07 00:24:08;;;;;;;2.30;1.50;;;;;;;15.94;91.08;97388.33;110252;1247;67646;-76
2022/07/07 00:26:37;;;;;;;2.30;1.60;;;;;;;15.92;91.33;97385.52;110364;1247;69320;-77
2022/07/07 00:29:07;;;;;;;;;;;;;;;15.91;90.93;97379.48;110300;1247;60576;-76
2022/07/07 00:31:37;;;;;;;;;;;;;;;15.89;90.89;97380.59;110218;1248;60499;-75
2022/07/07 00:34:07;;;;;;;2.20;1.50;;;;;;;15.88;90.89;97380.13;110344;1247;72190;-74
2022/07/07 00:36:39;;;;;;;2.60;1.80;;;;;;;15.84;91.05;97384.39;110090;1247;66849;-72
2022/07/07 00:39:10;;;;;;;2.30;1.60;;;;;;;15.84;90.95;97386.46;110199;1247;68674;-75
2022/07/07 00:41:41;;;;;;;3.20;2.00;;;;;;;15.84;90.69;97385.96;110112;1247;60502;-77
2022/07/07 00:44:12;;;;;;;2.10;1.80;;;;;;;15.83;90.36;97385.70;110258;1246;60555;-75
2022/07/07 00:46:50;;;;;;;2.40;2.00;;;;;;;15.83;90.17;97381.31;110237;1247;71616;-77
2022/07/07 00:49:21;;;;;;;3.20;1.60;;;;;;;15.81;90.49;97383.60;110062;1248;67612;-74
2022/07/07 00:51:51;;;;;;;2.90;1.60;;;;;;;15.78;90.92;97382.45;110310;1247;69231;-76
2022/07/07 00:54:21;;;;;;;2.20;1.60;;;;;;;15.73;91.83;97379.44;110119;1247;60633;-76
2022/07/07 00:56:52;;;;;;;4.30;1.80;;;;;;;15.74;91.27;97380.74;110210;1247;60492;-76
2022/07/07 00:59:42;;;;;;;3.20;1.70;;;;;;;15.75;90.58;97379.95;110147;1247;71156;-78
2022/07/07 01:02:11;;;;;;;2.60;1.80;;;;;;;15.74;90.46;97380.73;110345;1247;67864;-75
2022/07/07 01:04:43;;;;;;;2.20;1.60;;;;;;;15.73;90.58;97382.21;110311;1247;68776;-74
2022/07/07 01:07:14;;;;;;;2.40;1.90;;;;;;;15.73;90.50;97381.39;110230;1247;60643;-73
2022/07/07 01:09:45;;;;;;;1.60;1.40;;;;;;;15.72;90.34;97383.73;109987;1247;60545;-76
2022/07/07 01:12:16;;;;;;;2.00;1.80;;;;;;;15.68;90.72;97380.57;110289;1247;72300;-74
2022/07/07 01:14:46;;;;;;;3.10;2.00;;;;;;;15.67;90.29;97385.49;110030;1247;68668;-75
2022/07/07 01:17:16;;;;;;;;;;;;;;;15.63;90.57;97388.28;110288;1246;69446;-75
2022/07/07 01:19:47;;;;;;;3.10;1.70;;;;;;;15.60;91.23;97389.64;110242;1247;60551;-75
2022/07/07 01:22:17;;;;;;;3.20;1.60;;;;;;;15.60;90.84;97387.00;110283;1247;60470;-75
2022/07/07 01:24:49;;;;;;;5.10;2.00;;;;;;;15.58;91.52;97384.16;110220;1247;71616;-72
2022/07/07 01:27:20;;;;;;;2.80;1.80;;;;;;;15.53;92.16;97385.83;110232;1247;67787;-73
2022/07/07 01:29:54;;;;;;;2.10;1.80;;;;;;;15.52;91.54;97386.96;110226;1247;68484;-75
2022/07/07 01:32:26;;;;;;;3.40;1.60;;;;;;;15.52;90.95;97390.82;110281;1247;60569;-73
2022/07/07 01:34:56;;;;;;;2.40;1.80;;;;;;;15.53;90.47;97390.05;110169;1247;60488;-73
2022/07/07 01:37:26;;;;;;;3.10;1.60;;;;;;;15.54;90.42;97394.15;110095;1247;72242;-74
2022/07/07 01:39:57;;;;;;;2.10;1.50;;;;;;;15.54;90.46;97394.55;110178;1247;67599;-74
2022/07/07 01:42:28;;;;;;;3.20;2.20;;;;;;;15.54;90.55;97395.39;110123;1247;68594;-75
2022/07/07 01:45:01;;;;;;;4.30;2.10;;;;;;;15.54;90.19;97392.63;110160;1247;60489;-75
2022/07/07 01:47:33;;;;;;;1.50;1.10;;;;;;;15.54;90.46;97394.20;110029;1247;60542;-74
2022/07/07 01:50:05;;;;;;;2.90;1.50;;;;;;;15.53;91.32;97391.96;110138;1247;72318;-76
2022/07/07 01:52:36;;;;;;;2.50;1.60;;;;;;;15.54;91.29;97401.75;110280;1247;68766;-75
2022/07/07 01:55:08;;;;;;;2.50;1.80;;;;;;;15.54;90.74;97403.49;110195;1247;69459;-75
2022/07/07 01:57:39;;;;;;;3.50;1.90;;;;;;;15.52;91.50;97402.10;110032;1248;60504;-75
2022/07/07 02:00:12;;;;;;;3.90;2.00;;;;;;;15.50;91.66;97407.91;109972;1248;60561;-74
2022/07/07 02:02:42;;;;;;;3.60;1.80;;;;;;;15.47;91.29;97409.44;110222;1247;71562;-75
2022/07/07 02:05:13;;;;;;;4.90;2.10;;;;;;;15.47;91.69;97412.63;109923;1248;68540;-75
2022/07/07 02:07:45;;;;;;;5.50;2.20;;;;;;;15.47;92.02;97411.15;110232;1247;69394;-74
2022/07/07 02:13:08;;;;;;;3.10;1.90;;;;;;;15.47;92.49;97413.09;109747;1250;60489;-78
2022/07/07 02:15:39;;;;;;;2.50;1.50;;;;;;;15.48;92.77;97408.10;110098;1248;72957;-74
2022/07/07 02:18:09;;;;;;;3.00;1.90;;;;;;;15.48;92.20;97411.73;110190;1248;67905;-74
2022/07/07 02:20:39;;;;;;;2.80;1.90;;;;;;;15.47;92.21;97408.19;109906;1247;69375;-75
2022/07/07 02:23:09;;;;;;;2.80;1.90;;;;;;;15.47;92.28;97408.55;109923;1248;60583;-75
2022/07/07 02:25:39;;;;;;;3.10;1.70;;;;;;;15.48;92.05;97413.32;109880;1248;60508;-74
2022/07/07 02:28:09;;;;;;;5.10;2.10;;;;;;;15.47;91.50;97415.89;109925;1249;71377;-75
2022/07/07 02:30:38;;;;;;;;;;;;;;;15.48;92.74;97420.90;109983;1247;67819;-76
2022/07/07 02:33:10;;;;;;;2.80;1.80;;;;;;;15.49;92.85;97421.54;110188;1248;68647;-78
2022/07/07 02:35:41;;;;;;;3.40;1.70;;;;;;;15.49;92.53;97423.58;110020;1248;60614;-79
2022/07/07 02:38:11;;;;;;;1.60;1.40;;;;;;;15.51;91.73;97425.53;110359;1247;60566;-74
2022/07/07 02:40:41;;;;;;;2.60;1.30;;;;;;;15.51;91.73;97425.38;110058;1248;72365;-75
2022/07/07 02:43:12;;;;;;;4.20;2.00;;;;;;;15.51;91.33;97425.57;109970;1249;67724;-74
2022/07/07 02:45:45;;;;;;;4.50;1.60;;;;;;;15.47;91.37;97427.67;110186;1247;69406;-75
2022/07/07 02:48:22;;;;;;;2.60;1.80;;;;;;;15.45;91.12;97426.48;110120;1248;60548;-75
2022/07/07 02:50:54;;;;;;;3.10;2.10;;;;;;;15.42;91.75;97424.09;110284;1247;60542;-73
2022/07/07 02:53:23;;;;;;;3.10;1.90;;;;;;;15.34;91.38;97426.27;110016;1247;71303;-74
2022/07/07 02:55:55;;;;;;;2.50;1.80;;;;;;;15.28;90.76;97424.20;110129;1248;68525;-75
2022/07/07 02:58:25;;;;;;;;;;;;;;;15.21;90.67;97426.36;110078;1247;69380;-74
2022/07/07 03:00:56;;;;;;;2.80;1.60;;;;;;;15.14;90.80;97429.66;110229;1247;60505;-75
2022/07/07 03:03:26;;;;;;;2.70;1.50;;;;;;;15.08;91.22;97433.55;109963;1247;60567;-72
2022/07/07 03:05:56;;;;;;;2.60;1.60;;;;;;;15.01;90.80;97433.96;110212;1247;71527;-73
2022/07/07 03:08:26;;;;;;;3.00;1.90;;;;;;;14.96;90.65;97435.67;110257;1247;67782;-77
2022/07/07 03:10:59;;;;;;;2.30;1.80;;;;;;;14.90;91.80;97436.55;110090;1247;68487;-74
2022/07/07 03:13:29;;;;;;;3.10;2.20;;;;;;;14.87;93.36;97437.95;110285;1247;60636;-74
2022/07/07 03:15:59;;;;;;;3.30;1.90;;;;;;;14.82;92.69;97435.69;110258;1247;60510;-74
2022/07/07 03:18:29;;;;;;;2.90;1.90;;;;;;;14.79;92.08;97438.25;110285;1245;71563;-74
2022/07/07 03:20:59;;;;;;;2.40;1.70;;;;;;;14.76;92.85;97442.57;110168;1247;67741;-76
2022/07/07 03:23:28;;;;;;;2.40;1.60;;;;;;;14.72;93.38;97446.23;110272;1247;69243;-74
2022/07/07 03:25:59;;;;;;;4.00;2.00;;;;;;;14.68;93.33;97452.25;110310;1247;60539;-75
2022/07/07 03:28:29;;;;;;;3.80;2.30;;;;;;;14.66;93.14;97453.14;110199;1247;60482;-74
2022/07/07 03:30:58;;;;;;;2.70;1.90;;;;;;;14.63;92.67;97455.95;110183;1247;71582;-75
2022/07/07 03:33:28;;;;;;;;;;;;;;;14.62;92.38;97456.95;110192;1247;67768;-78
2022/07/07 03:35:57;;;;;;;3.20;2.10;;;;;;;14.61;92.12;97456.85;110078;1247;69229;-74
2022/07/07 03:38:27;;;;;;;2.90;1.70;;;;;;;14.63;91.16;97453.93;110257;1247;60608;-75
2022/07/07 03:40:57;;;;;;;3.40;2.10;;;;;;;14.64;91.68;97448.71;110174;1247;60599;-76
2022/07/07 03:43:31;;;;;;;2.80;2.20;;;;;;;14.63;91.94;97449.66;110172;1248;71761;-75
2022/07/07 03:46:00;;;;;;;3.40;2.30;;;;;;;14.63;91.84;97447.61;110241;1247;68377;-75
2022/07/07 03:48:30;;;;;;;4.60;2.50;;;;;;;14.63;91.75;97449.69;110300;1247;68830;-74
2022/07/07 03:50:59;;;;;;;4.40;2.20;;;;;;;14.66;91.79;97454.52;110275;1245;60500;-74
2022/07/07 03:53:29;;;;;;;7.00;2.60;;;;;;;14.67;91.81;97459.50;110099;1248;60539;-75
2022/07/07 03:55:59;;;;;;;3.20;2.30;;;;;;;14.72;92.84;97461.65;110239;1247;71536;-75
2022/07/07 03:58:28;;;;;;;2.90;1.90;;;;;;;14.80;92.61;97458.39;110233;1247;68148;-75
2022/07/07 04:00:59;;;;;;;2.30;1.80;;;;;;;14.87;92.14;97461.25;110173;1247;69216;-76
2022/07/07 04:03:29;;;;;;;3.90;2.20;;;;;;;14.95;91.63;97464.20;110133;1247;60498;-76
2022/07/07 04:05:58;;;;;;;3.10;2.00;;;;;;;15.01;91.06;97468.01;110218;1247;60926;-74
2022/07/07 04:08:27;;;;;;;3.20;2.00;;;;;;;15.10;90.69;97471.66;110161;1249;72381;-74
2022/07/07 04:10:56;;;;;;;3.30;1.90;;;;;;;15.19;90.31;97471.02;110196;1248;67073;-76
2022/07/07 04:13:26;;;;;;;2.40;1.90;;;;;;;15.27;90.02;97470.27;110241;1247;69431;-76
2022/07/07 04:15:56;;;;;;;2.80;1.70;;;;;;;15.36;90.00;97467.73;110219;1247;60534;-75
2022/07/07 04:18:26;;;;;;;3.40;1.80;;;;;;;15.45;89.79;97466.33;110276;1247;60492;-75
2022/07/07 04:20:55;;;;;;;2.40;1.50;;;;;;;15.55;89.55;97468.05;110151;1247;72295;-75
2022/07/07 04:23:27;;;;;;;1.90;1.60;;;;;;;15.63;88.74;97465.73;110245;1247;68541;-78
2022/07/07 04:25:58;;;;;;;2.80;2.10;;;;;;;15.72;88.91;97465.13;110141;1247;68466;-76
2022/07/07 04:28:29;;;;;;;2.60;1.90;;;;;;;15.76;88.60;97468.78;110225;1247;60535;-74
2022/07/07 04:30:59;;;;;;;5.30;2.10;;;;;;;15.80;88.09;97469.27;109992;1249;60553;-75
2022/07/07 04:33:29;;;;;;;4.10;2.30;;;;;;;15.82;87.04;97471.08;110144;1248;70750;-72
2022/07/07 04:35:59;;;;;;;4.80;2.30;;;;;;;15.87;87.31;97471.41;110281;1246;67853;-75
2022/07/07 04:38:28;;;;;;;;;;;;;;;15.95;86.98;97467.54;110312;1247;68602;-77
2022/07/07 04:40:58;;;;;;;4.10;1.70;;;;;;;16.02;85.72;97467.23;110131;1248;61155;-76
2022/07/07 04:43:27;;;;;;;5.90;2.20;;;;;;;16.05;84.22;97468.17;110151;1247;60553;-74
2022/07/07 04:45:58;;;;;;;3.30;2.20;;;;;;;16.08;84.70;97465.11;110169;1247;72343;-74
2022/07/07 04:48:28;;;;;;;2.70;1.90;;;;;;;16.16;84.98;97465.19;110120;1248;67792;-72
2022/07/07 04:50:57;;;;;;;2.50;1.80;;;;;;;16.21;83.74;97462.11;110199;1247;67838;-74
2022/07/07 04:53:27;;;;;;;2.60;1.80;;;;;;;16.30;84.08;97461.58;110174;1247;60526;-76
2022/07/07 04:55:57;;;;;;;3.50;2.10;;;;;;;16.39;84.07;97462.33;110124;1247;60560;-75
2022/07/07 04:58:26;;;;;;;3.00;1.60;;;;;;;16.47;83.77;97463.07;109970;1248;72390;-74
2022/07/07 05:00:56;;;;;;;3.90;1.90;;;;;;;16.57;82.43;97464.06;109938;1248;67626;-75
2022/07/07 05:03:29;;;;;;;2.70;1.60;;;;;;;16.71;82.64;97466.61;110204;1247;69541;-75
2022/07/07 05:05:59;;;;;;;2.40;2.10;;;;;;;16.88;82.92;97463.77;109986;1247;60507;-73
2022/07/07 05:08:29;;;;;;;2.30;1.80;;;;;;;17.08;82.77;97462.98;110223;1247;60514;-73
2022/07/07 05:10:59;;;;;;;2.80;2.00;;;;;;;17.30;78.64;97457.29;109803;1251;71208;-75
2022/07/07 05:13:28;;;;;;;3.60;1.80;;;;;;;17.57;78.61;97458.63;110068;1247;68714;-75
2022/07/07 05:15:58;;;;;;;2.00;1.70;;;;;;;17.95;77.22;97464.49;109916;1248;69455;-72
2022/07/07 05:18:30;;;;;;;1.90;1.50;;;;;;;18.37;76.50;97467.02;109920;1250;60600;-74
2022/07/07 05:20:59;;;;;;;1.80;1.50;;;;;;;19.00;76.44;97465.05;109878;1250;60511;-76
2022/07/07 05:23:29;;;;;;;2.50;1.50;;;;;;;19.44;70.17;97464.06;109930;1248;72168;-76
2022/07/07 05:25:58;;;;;;;2.30;1.50;;;;;;;19.77;68.18;97465.83;109866;1248;68634;-74
2022/07/07 05:28:30;;;;;;;4.00;1.90;;;;;;;20.14;68.49;97466.13;109913;1248;69385;-75
2022/07/07 05:30:59;;;;;;;2.40;1.60;;;;;;;20.21;66.23;97468.03;109916;1247;60475;-74
2022/07/07 05:33:29;;;;;;;2.60;1.40;;;;;;;20.48;66.60;97469.40;110073;1247;60449;-77
2022/07/07 05:35:58;;;;;;;3.80;1.50;;;;;;;20.61;64.97;97471.68;109994;1247;72396;-75
2022/07/07 05:38:29;;;;;;;2.20;1.60;;;;;;;20.73;64.76;97478.66;109881;1248;67626;-77
2022/07/07 05:40:59;;;;;;;1.90;1.50;;;;;;;20.78;64.48;97480.36;110059;1247;68682;-77
2022/07/07 05:43:29;;;;;;;3.70;1.80;;;;;;;20.83;63.70;97480.46;110068;1247;60487;-75
2022/07/07 05:45:59;;;;;;;2.70;1.40;;;;;;;20.89;64.00;97485.71;109989;1248;60570;-75
2022/07/07 05:48:30;;;;;;;2.50;1.30;;;;;;;20.81;63.18;97490.23;110139;1247;71660;-74
2022/07/07 05:51:09;;;;;;;2.00;1.40;;;;;;;20.69;63.41;97493.92;110051;1248;68535;-76
2022/07/07 05:53:44;;;;;;;2.90;1.80;;;;;;;20.55;63.91;97495.08;110051;1247;68737;-75
2022/07/07 05:56:27;;;;;;;1.80;1.50;;;;;;;20.45;63.21;97495.91;109972;1247;60502;-74
2022/07/07 05:58:57;;;;;;;1.70;1.40;;;;;;;20.48;64.27;97496.19;110177;1247;60482;-74
2022/07/07 06:01:26;;;;;;;1.60;1.40;;;;;;;20.55;64.96;97498.35;110298;1247;72436;-74
2022/07/07 06:03:55;;;;;;;2.30;1.90;;;;;;;20.73;63.24;97500.11;110142;1247;68622;-74
2022/07/07 06:06:25;;;;;;;1.90;1.50;;;;;;;20.56;62.43;97502.55;110318;1247;68531;-76
2022/07/07 06:08:54;;;;;;;2.40;1.70;;;;;;;20.81;63.28;97506.04;110105;1246;60428;-74
2022/07/07 06:11:23;;;;;;;5.40;1.80;;;;;;;20.49;63.45;97505.06;110301;1245;60479;-74
2022/07/07 06:13:52;;;;;;;;;;;;;;;20.48;64.40;97504.02;110303;1247;72384;-74
2022/07/07 06:16:38;;;;;;;1.60;1.30;;;;;;;20.28;65.26;97501.88;110204;1247;67921;-73
2022/07/07 06:19:09;;;;;;;1.80;1.50;;;;;;;20.41;65.77;97506.86;110131;1246;69285;-75
2022/07/07 06:21:41;;;;;;;2.20;1.70;;;;;;;20.64;64.46;97510.97;110237;1247;60483;-76
2022/07/07 06:24:10;;;;;;;2.40;1.90;;;;;;;20.94;64.70;97514.88;110298;1246;60563;-74
2022/07/07 06:26:40;;;;;;;2.00;1.80;;;;;;;20.77;62.56;97516.61;110044;1247;71320;-75
2022/07/07 06:29:09;;;;;;;3.70;2.10;;;;;;;20.72;62.69;97519.45;110164;1247;67746;-77
2022/07/07 06:31:38;;;;;;;2.10;1.50;;;;;;;20.80;63.00;97518.81;110237;1247;69509;-76
2022/07/07 06:34:07;;;;;;;1.90;1.60;;;;;;;21.26;62.98;97519.55;110297;1246;60984;-75
2022/07/07 06:36:36;;;;;;;4.00;1.80;;;;;;;21.61;61.47;97516.10;110352;1247;60472;-77
2022/07/07 06:39:05;;;;;;;2.70;1.70;;;;;;;21.74;61.14;97514.72;110158;1247;71408;-77
2022/07/07 06:41:39;;;;;;;5.60;5.10;;;;;;;21.43;60.29;97520.27;110266;1246;67848;-74
2022/07/07 06:44:11;;;;;;;2.80;2.10;;;;;;;20.90;62.09;97519.75;110115;1247;67709;-78
2022/07/07 06:46:43;;;;;;;2.20;1.50;;;;;;;20.32;63.01;97517.36;110296;1247;60498;-76
2022/07/07 06:49:13;;;;;;;3.40;1.60;;;;;;;20.04;63.76;97517.09;110260;1247;60449;-76
2022/07/07 06:51:43;;;;;;;2.20;1.80;;;;;;;20.20;64.54;97519.37;110261;1247;74047;-74
2022/07/07 06:54:14;;;;;;;2.10;1.50;;;;;;;20.74;63.44;97513.25;110015;1246;68561;-74
2022/07/07 06:56:45;;;;;;;3.30;2.20;;;;;;;21.44;62.35;97514.65;110280;1247;69400;-74
2022/07/07 06:59:17;;;;;;;5.00;4.30;;;;;;;22.07;58.57;97515.23;110268;1247;60492;-74
2022/07/07 07:01:48;;;;;;;3.70;1.90;;;;;;;22.78;59.00;97518.70;109970;1247;60548;-75
2022/07/07 07:04:18;;;;;;;3.20;2.20;;;;;;;23.56;57.49;97521.13;110260;1247;72673;-74
2022/07/07 07:06:48;;;;;;;4.80;3.10;;;;;;;24.11;54.22;97517.85;110243;1246;68435;-73
2022/07/07 07:09:17;;;;;;;9.50;7.20;;;;;;;24.36;52.99;97517.67;109959;1247;69522;-74
2022/07/07 07:11:46;;;;;;;3.50;2.20;;;;;;;24.19;51.47;97519.64;110013;1246;60940;-76
2022/07/07 07:14:15;;;;;;;2.10;1.80;;;;;;;24.26;51.34;97519.14;110154;1247;60566;-76
2022/07/07 07:16:44;;;;;;;2.50;1.70;;;;;;;24.36;51.23;97521.39;110151;1245;72372;-75
2022/07/07 07:19:14;;;;;;;17.50;11.80;;;;;;;24.38;50.38;97520.46;110343;1245;67589;-75
2022/07/07 07:21:43;;;;;;;22.10;11.10;;;;;;;24.62;50.76;97522.42;110319;1247;69664;-76
2022/07/07 07:24:13;;;;;;;13.60;9.10;;;;;;;24.55;50.48;97520.08;110163;1247;60548;-76
2022/07/07 07:26:42;;;;;;;;;;;;;;;24.34;50.79;97524.20;110127;1247;60482;-74
2022/07/07 07:29:15;;;;;;;2.70;2.20;;;;;;;24.03;51.01;97522.17;109770;1247;631776;-75
2022/07/07 07:31:44;;;;;;;;;;;;;;;24.00;51.34;97527.49;110256;1247;68366;-75
2022/07/07 07:34:13;;;;;;;2.60;2.20;;;;;;;23.78;51.93;97524.52;110249;1245;68459;-75
2022/07/07 07:36:43;;;;;;;52.70;40.70;;;;;;;23.43;52.89;97530.41;110295;1246;60490;-75
2022/07/07 07:39:14;;;;;;;9.90;8.30;;;;;;;22.81;54.49;97534.10;110334;1246;60506;-76
2022/07/07 07:41:46;;;;;;;47.30;32.70;;;;;;;22.26;56.84;97530.79;110115;1247;71540;-76
2022/07/07 07:47:07;;;;;;;27.00;18.80;;;;;;;21.50;57.20;97527.84;109938;1247;69247;-77
2022/07/07 07:49:36;;;;;;;;;;;;;;;21.40;58.65;97527.52;110337;1247;60931;-75
2022/07/07 07:52:06;;;;;;;24.30;17.90;;;;;;;21.37;58.91;97531.77;110315;1244;60562;-76
2022/07/07 07:54:36;;;;;;;15.80;13.00;;;;;;;21.15;57.93;97531.73;110278;1246;71559;-75
2022/07/07 07:57:05;;;;;;;31.20;20.10;;;;;;;20.94;59.02;97530.09;110329;1247;67822;-75
2022/07/07 07:59:35;;;;;;;24.70;16.60;;;;;;;21.09;59.19;97531.37;110238;1247;68456;-77
2022/07/07 08:02:04;;;;;;;5.90;3.80;;;;;;;21.43;58.52;97525.92;110189;1247;60538;-75
2022/07/07 08:04:33;;;;;;;49.30;40.30;;;;;;;21.75;57.83;97526.33;110300;1247;60608;-76
2022/07/07 08:07:03;;;;;;;5.60;5.00;;;;;;;22.06;57.36;97526.05;110014;1247;71434;-76
2022/07/07 08:09:33;;;;;;;4.80;3.60;;;;;;;22.67;55.69;97523.39;109938;1246;67769;-75
2022/07/07 08:12:02;;;;;;;4.30;3.90;;;;;;;23.40;53.17;97524.30;110011;1249;68641;-78
2022/07/07 08:14:32;;;;;;;3.80;3.50;;;;;;;24.07;52.25;97520.81;110271;1247;60544;-76
2022/07/07 08:17:01;;;;;;;4.00;3.10;;;;;;;24.74;50.03;97525.85;110137;1247;60534;-76
2022/07/07 08:19:31;;;;;;;3.80;3.30;;;;;;;25.02;47.39;97526.84;110286;1247;71403;-75
2022/07/07 08:22:00;;;;;;;5.20;3.70;;;;;;;25.30;47.13;97526.88;110297;1246;68101;-75
2022/07/07 08:24:29;;;;;;;5.10;3.60;;;;;;;25.50;45.94;97522.10;110349;1246;69517;-74
2022/07/07 08:27:00;;;;;;;5.40;3.60;;;;;;;25.64;45.84;97523.14;110232;1247;60602;-76
2022/07/07 08:29:31;;;;;;;17.40;15.00;;;;;;;25.79;46.16;97521.65;110427;1246;60495;-75
2022/07/07 08:32:02;;;;;;;5.10;4.40;;;;;;;25.75;45.80;97521.88;110366;1245;71630;-76
2022/07/07 08:34:31;;;;;;;4.20;3.70;;;;;;;25.81;46.31;97519.36;110205;1247;68527;-77
2022/07/07 08:37:08;;;;;;;3.80;3.30;;;;;;;26.16;45.76;97518.40;110216;1247;69137;-75
2022/07/07 08:39:38;;;;;;;3.60;2.50;;;;;;;26.37;44.79;97516.27;110272;1246;60506;-74
2022/07/07 08:42:08;;;;;;;4.00;3.60;;;;;;;26.18;45.51;97512.37;109928;1247;60620;-74
2022/07/07 08:44:37;;;;;;;3.90;3.60;;;;;;;26.03;45.15;97510.66;110298;1247;71569;-74
2022/07/07 08:47:06;;;;;;;;;;;;;;;25.46;45.76;97512.74;110351;1247;68720;-76
2022/07/07 08:49:38;;;;;;;3.50;3.20;;;;;;;25.15;45.27;97507.52;110317;1247;68618;-75
2022/07/07 08:52:07;;;;;;;;;;;;;;;24.56;45.75;97508.00;110219;1245;60497;-74
2022/07/07 08:54:38;;;;;;;;;;;;;;;24.98;45.88;97510.08;110357;1247;60544;-76
2022/07/07 08:57:08;;;;;;;3.10;2.20;;;;;;;25.64;46.42;97504.20;110039;1247;72316;-74
2022/07/07 08:59:36;;;;;;;;;;;;;;;26.15;44.41;97504.19;110078;1247;67316;-74
2022/07/07 09:02:10;;;;;;;3.40;2.30;;;;;;;26.85;43.79;97510.46;110319;1246;68475;-74
2022/07/07 09:04:39;;;;;;;;;;;;;;;27.21;42.07;97510.65;110029;1247;60513;-74
2022/07/07 09:07:08;;;;;;;2.50;2.30;;;;;;;27.72;41.22;97506.00;110118;1247;60405;-74
2022/07/07 09:09:37;;;;;;;;;;;;;;;28.05;39.53;97505.23;110294;1247;72352;-74
2022/07/07 09:12:07;;;;;;;;;;;;;;;28.23;39.21;97500.29;110251;1247;67658;-76
2022/07/07 09:14:43;;;;;;;3.50;3.10;;;;;;;28.15;38.70;97501.39;110362;1245;69395;-75
2022/07/07 09:17:29;;;;;;;2.60;2.20;;;;;;;26.73;40.58;97509.11;110377;1246;60565;-75
2022/07/07 09:20:05;;;;;;;3.30;2.40;;;;;;;26.47;41.13;97506.60;110162;1247;60489;-74
2022/07/07 09:22:50;;;;;;;4.30;3.30;;;;;;;26.01;42.50;97500.68;110479;1246;72394;-77
2022/07/07 09:25:27;;;;;;;2.50;2.30;;;;;;;25.05;43.18;97503.73;110346;1247;68647;-72
2022/07/07 09:27:59;;;;;;;3.40;2.60;;;;;;;25.13;43.31;97499.04;110254;1247;68281;-74
2022/07/07 09:30:57;;;;;;;4.10;2.60;;;;;;;25.06;43.98;97497.65;110237;1247;60468;-75
2022/07/07 09:33:27;;;;;;;2.50;2.30;;;;;;;25.06;43.36;97500.87;109675;1253;60482;-75
2022/07/07 09:38:44;;;;;;;2.00;1.80;;;;;;;26.49;40.96;97492.71;109541;1251;67859;-73
2022/07/07 09:41:15;;;;;;;;;;;;;;;26.57;40.45;97491.95;109689;1253;69476;-75
2022/07/07 09:43:53;;;;;;;3.70;2.70;;;;;;;26.03;40.63;97495.73;109687;1253;60487;-75
2022/07/07 09:46:27;;;;;;;3.40;1.80;;;;;;;25.65;42.69;97488.41;109745;1253;60609;-74
2022/07/07 09:48:57;;;;;;;2.20;1.60;;;;;;;25.65;42.85;97489.96;109680;1253;71300;-76
2022/07/07 09:51:30;;;;;;;2.10;1.60;;;;;;;26.38;42.15;97489.05;109475;1253;67626;-75
2022/07/07 09:54:05;;;;;;;2.70;1.60;;;;;;;26.60;40.75;97485.85;109725;1253;69503;-74
2022/07/07 09:56:40;;;;;;;2.40;2.00;;;;;;;26.91;41.03;97489.92;109665;1253;60623;-74
2022/07/07 09:59:16;;;;;;;2.80;1.60;;;;;;;27.00;39.66;97489.57;109783;1253;60626;-74
2022/07/07 10:01:47;;;;;;;2.00;1.80;;;;;;;26.76;38.93;97482.29;109595;1253;71590;-74
2022/07/07 10:04:22;;;;;;;1.60;1.50;;;;;;;26.52;39.18;97481.75;109778;1253;68081;-73
2022/07/07 10:06:54;;;;;;;3.20;1.80;;;;;;;26.35;39.89;97479.21;109661;1252;68498;-74
2022/07/07 10:09:27;;;;;;;1.80;1.50;;;;;;;26.50;40.94;97476.91;109597;1248;60564;-76
2022/07/07 10:11:56;;;;;;;2.20;1.40;;;;;;;26.95;40.49;97473.66;110028;1247;60463;-77
2022/07/07 10:14:33;;;;;;;3.20;1.60;;;;;;;27.29;37.73;97470.84;109860;1247;71526;-75
2022/07/07 10:17:03;;;;;;;2.70;1.70;;;;;;;27.67;35.87;97468.52;109980;1247;68656;-74
2022/07/07 10:19:33;;;;;;;2.00;1.50;;;;;;;27.97;35.29;97462.13;110312;1247;69225;-76
2022/07/07 10:22:03;;;;;;;2.20;1.70;;;;;;;27.79;33.53;97460.27;110351;1247;60495;-74
2022/07/07 10:24:33;;;;;;;1.40;1.30;;;;;;;27.72;36.73;97459.02;110395;1246;60487;-73
2022/07/07 10:27:04;;;;;;;2.20;1.60;;;;;;;27.39;37.58;97456.36;110385;1246;72411;-74
2022/07/07 10:29:47;;;;;;;1.60;1.50;;;;;;;26.52;38.76;97460.05;110331;1247;67774;-74
2022/07/07 10:32:31;;;;;;;3.10;1.90;;;;;;;25.87;40.14;97458.77;110300;1247;68621;-71
2022/07/07 10:35:14;;;;;;;2.30;2.00;;;;;;;25.45;40.94;97460.45;109867;1247;60514;-75
2022/07/07 10:37:45;;;;;;;1.60;1.40;;;;;;;25.51;40.62;97459.18;110309;1246;60526;-73
2022/07/07 10:40:18;;;;;;;2.10;1.80;;;;;;;26.11;39.66;97455.39;110329;1247;72167;-75
2022/07/07 10:42:56;;;;;;;2.20;1.90;;;;;;;26.51;38.87;97453.14;110396;1247;67699;-73
2022/07/07 10:45:28;;;;;;;1.70;1.50;;;;;;;26.68;38.05;97451.33;110378;1247;67909;-75
2022/07/07 10:47:58;;;;;;;3.20;1.70;;;;;;;26.80;36.90;97447.08;110403;1246;60895;-74
2022/07/07 10:50:31;;;;;;;1.80;1.60;;;;;;;26.78;36.95;97444.89;110348;1245;60412;-75
2022/07/07 10:53:02;;;;;;;1.60;1.50;;;;;;;26.56;36.63;97444.95;110416;1246;72146;-74
2022/07/07 10:56:05;;;;;;;2.00;1.60;;;;;;;26.06;36.99;97442.76;110149;1248;68532;-75
2022/07/07 10:58:59;;;;;;;2.70;1.30;;;;;;;26.02;39.19;97442.85;110225;1247;68640;-74
2022/07/07 11:01:31;;;;;;;1.50;1.20;;;;;;;26.08;40.11;97443.54;109946;1248;60570;-75
2022/07/07 11:04:02;;;;;;;2.60;1.70;;;;;;;25.99;39.78;97443.52;110034;1250;60510;-74
2022/07/07 11:06:51;;;;;;;;;;;;;;;25.95;40.37;97444.91;110288;1247;71994;-74
2022/07/07 11:09:21;;;;;;;1.90;1.70;;;;;;;25.58;40.93;97443.30;110295;1246;68377;-75
2022/07/07 11:12:10;;;;;;;;;;;;;;;25.02;41.19;97439.64;110028;1250;69249;-76
2022/07/07 11:14:40;;;;;;;2.60;2.10;;;;;;;25.10;40.96;97438.63;110264;1247;60564;-75
2022/07/07 11:17:20;;;;;;;;;;;;;;;25.09;40.59;97434.52;110124;1248;60417;-73
2022/07/07 11:19:50;;;;;;;2.30;1.70;;;;;;;25.23;40.37;97431.33;110211;1247;71512;-73
2022/07/07 11:22:19;;;;;;;2.20;1.80;;;;;;;25.72;39.39;97429.50;110276;1247;67710;-73
2022/07/07 11:24:50;;;;;;;2.30;1.70;;;;;;;26.23;38.36;97436.02;110014;1248;69323;-74
2022/07/07 11:27:29;;;;;;;1.70;1.60;;;;;;;26.41;37.14;97431.71;110030;1248;60548;-74
2022/07/07 11:30:00;;;;;;;1.50;1.40;;;;;;;26.57;37.02;97432.98;110045;1247;60641;-76
2022/07/07 11:32:42;;;;;;;2.50;1.60;;;;;;;26.98;37.33;97425.32;109990;1248;71654;-74
2022/07/07 11:35:14;;;;;;;1.60;1.50;;;;;;;27.57;37.90;97423.23;110285;1247;67843;-73
2022/07/07 11:37:46;;;;;;;1.60;1.50;;;;;;;27.71;35.80;97422.14;110226;1247;69218;-74
2022/07/07 11:40:17;;;;;;;1.50;1.40;;;;;;;27.80;35.92;97420.95;109928;1250;60506;-75
2022/07/07 11:42:46;;;;;;;;;;;;;;;27.76;36.32;97422.80;110254;1247;60461;-74
2022/07/07 11:45:25;;;;;;;1.30;1.20;;;;;;;27.58;35.90;97418.92;110045;1247;71577;-74
2022/07/07 11:48:02;;;;;;;2.30;1.60;;;;;;;27.07;35.14;97418.20;110325;1247;68813;-75
2022/07/07 11:50:35;;;;;;;2.00;1.80;;;;;;;26.76;35.73;97417.52;110329;1247;68705;-74
2022/07/07 11:53:05;;;;;;;2.60;1.90;;;;;;;26.46;37.08;97416.10;110232;1247;60490;-75
2022/07/07 11:55:34;;;;;;;2.10;1.80;;;;;;;26.57;38.06;97420.54;109970;1247;60502;-74
2022/07/07 11:58:06;;;;;;;2.60;1.90;;;;;;;26.44;37.44;97418.27;110275;1247;72425;-73